Time;durP1;ratioP1;P1;durP2;ratioP2;P2;SDS_P1;SDS_P2;PMS_P1;PMS_P2;Temp;Humidity;BMP_temperature;BMP_pressure;BME280_temperature;BME280_humidity;BME280_pressure;Samples;Min_cycle;Max_cycle;Signal;HPM_P1;HPM_P2
2021/08/31 00:02:20;;;;;;;0.10;0.10;;;;;;;22.79;58.17;99795.31;6304779;22;20366;-64
2021/08/31 00:04:46;;;;;;;0.10;0.10;;;;;;;22.79;58.20;99797.97;6304575;22;20026;-64
2021/08/31 00:07:12;;;;;;;0.10;0.10;;;;;;;22.79;57.99;99792.66;6304292;22;20023;-63
2021/08/31 00:09:37;;;;;;;0.10;0.10;;;;;;;22.77;57.99;99786.63;6304000;22;20113;-64
2021/08/31 00:12:04;;;;;;;0.10;0.10;;;;;;;22.80;57.97;99796.16;6277246;22;20019;-64
2021/08/31 00:14:30;;;;;;;0.30;0.30;;;;;;;22.78;58.18;99796.31;6303783;22;20022;-64
2021/08/31 00:16:56;;;;;;;0.40;0.40;;;;;;;22.79;57.99;99786.50;6277084;22;20030;-64
2021/08/31 00:19:22;;;;;;;0.10;0.10;;;;;;;22.79;57.91;99802.47;6304372;22;20019;-63
2021/08/31 00:21:48;;;;;;;0.10;0.10;;;;;;;22.79;57.75;99797.16;6304037;22;20402;-63
2021/08/31 00:24:14;;;;;;;0.17;0.17;;;;;;;22.79;57.96;99797.97;6304281;22;20459;-63
2021/08/31 00:26:40;;;;;;;0.10;0.10;;;;;;;22.69;57.94;99786.63;6303937;22;20015;-62
2021/08/31 00:29:06;;;;;;;0.17;0.17;;;;;;;22.77;58.11;99805.28;6277052;22;20015;-63
2021/08/31 00:31:32;;;;;;;0.25;0.25;;;;;;;22.74;57.85;99800.28;6304124;22;20020;-64
2021/08/31 00:33:58;;;;;;;0.10;0.10;;;;;;;22.76;58.05;99808.13;6304093;22;20057;-64
2021/08/31 00:36:24;;;;;;;0.30;0.30;;;;;;;22.76;58.15;99813.44;6304463;22;20089;-63
2021/08/31 00:38:50;;;;;;;0.20;0.20;;;;;;;22.76;57.97;99797.47;6276323;22;20023;-63
2021/08/31 00:41:16;;;;;;;0.15;0.15;;;;;;;22.76;57.86;99797.47;6276877;22;20054;-63
2021/08/31 00:43:44;;;;;;;0.10;0.10;;;;;;;22.74;57.86;99800.28;6303766;22;20015;-64
2021/08/31 00:46:12;;;;;;;0.10;0.10;;;;;;;22.75;58.13;99801.13;6304112;22;20076;-63
2021/08/31 00:48:38;;;;;;;0.30;0.30;;;;;;;22.71;58.08;99795.28;6303485;22;20094;-63
2021/08/31 00:51:04;;;;;;;0.20;0.20;;;;;;;22.69;58.22;99791.97;6304201;22;20045;-63
2021/08/31 00:53:30;;;;;;;0.13;0.13;;;;;;;22.68;58.21;99784.13;6276621;22;20113;-63
2021/08/31 00:55:56;;;;;;;0.20;0.20;;;;;;;22.70;58.05;99787.47;6277169;22;20038;-62
2021/08/31 00:58:22;;;;;;;0.15;0.15;;;;;;;22.66;57.95;99792.28;6304209;22;20447;-63
2021/08/31 01:00:51;;;;;;;0.17;0.17;;;;;;;22.68;58.45;99800.94;6303666;22;20026;-64
2021/08/31 01:03:19;;;;;;;0.10;0.10;;;;;;;22.68;58.08;99800.94;6227965;22;20106;-62
2021/08/31 01:05:46;;;;;;;0.10;0.10;;;;;;;22.68;58.16;99811.59;6304062;22;20141;-64
2021/08/31 01:08:13;;;;;;;0.10;0.10;;;;;;;22.67;58.31;99809.94;6276866;22;20026;-65
2021/08/31 01:10:39;;;;;;;0.17;0.17;;;;;;;22.64;58.37;99799.56;6303524;22;20527;-64
2021/08/31 01:13:05;;;;;;;0.52;0.52;;;;;;;22.64;58.00;99794.22;6303568;22;20019;-64
2021/08/31 01:15:31;;;;;;;0.20;0.20;;;;;;;22.63;58.40;99789.94;6250853;22;20359;-64
2021/08/31 01:17:57;;;;;;;0.10;0.10;;;;;;;22.63;58.47;99803.25;6303239;22;20108;-65
2021/08/31 01:20:23;;;;;;;0.15;0.15;;;;;;;22.63;58.21;99803.25;6303658;22;20100;-64
2021/08/31 01:22:59;;;;;;;0.22;0.22;;;;;;;22.61;58.23;99794.56;6304184;22;20015;-65
2021/08/31 01:25:25;;;;;;;0.15;0.15;;;;;;;22.61;58.41;99799.88;6303637;22;20096;-65
2021/08/31 01:27:51;;;;;;;0.15;0.15;;;;;;;22.61;58.20;99797.22;6303253;22;20088;-64
2021/08/31 01:30:17;;;;;;;0.20;0.20;;;;;;;22.61;58.13;99791.91;6303607;22;20025;-65
2021/08/31 01:32:43;;;;;;;0.10;0.10;;;;;;;22.59;58.30;99801.88;6303408;22;20094;-65
2021/08/31 01:35:11;;;;;;;0.13;0.13;;;;;;;22.58;58.15;99794.88;6303506;22;20055;-65
2021/08/31 01:37:37;;;;;;;0.10;0.10;;;;;;;22.60;58.19;99789.41;6303151;22;20043;-65
2021/08/31 01:40:04;;;;;;;0.22;0.22;;;;;;;22.56;58.30;99794.22;6303776;22;20019;-64
2021/08/31 01:42:30;;;;;;;0.20;0.20;;;;;;;22.56;58.25;99791.56;6303172;22;20011;-65
2021/08/31 01:44:56;;;;;;;0.20;0.20;;;;;;;22.57;58.50;99801.22;6303511;22;20444;-65
2021/08/31 01:47:22;;;;;;;0.10;0.10;;;;;;;22.56;58.34;99804.88;6250888;22;20073;-65
2021/08/31 01:49:48;;;;;;;0.20;0.20;;;;;;;22.57;58.44;99803.06;6303173;22;20018;-65
2021/08/31 01:52:15;;;;;;;0.20;0.20;;;;;;;22.57;58.21;99798.56;6303520;22;20120;-64
2021/08/31 01:54:41;;;;;;;0.30;0.30;;;;;;;22.53;58.22;99791.91;6303115;22;20042;-65
2021/08/31 01:57:07;;;;;;;0.35;0.35;;;;;;;22.56;58.46;99796.06;6303715;22;20030;-65
2021/08/31 01:59:33;;;;;;;0.52;0.30;;;;;;;22.54;58.39;99804.22;6303016;22;20011;-65
2021/08/31 02:02:00;;;;;;;0.40;0.40;;;;;;;22.43;58.50;99777.88;6276604;22;20019;-64
2021/08/31 02:04:26;;;;;;;0.30;0.30;;;;;;;22.53;58.35;99791.91;6275953;22;20225;-65
2021/08/31 02:06:52;;;;;;;0.00;0.00;;;;;;;22.52;58.38;99800.84;6303180;22;20470;-64
2021/08/31 02:09:18;;;;;;;0.10;0.10;;;;;;;22.46;58.37;99780.22;6303280;22;20017;-65
2021/08/31 02:11:44;;;;;;;0.10;0.10;;;;;;;22.50;58.75;99802.03;6303141;22;20458;-65
2021/08/31 02:14:10;;;;;;;0.30;0.30;;;;;;;22.36;58.72;99784.00;6303214;22;20023;-64
2021/08/31 02:16:38;;;;;;;0.10;0.10;;;;;;;22.50;58.51;99813.50;6302997;22;20029;-65
2021/08/31 02:19:04;;;;;;;0.10;0.10;;;;;;;22.49;58.42;99801.19;6303304;22;20022;-64
2021/08/31 02:21:30;;;;;;;0.10;0.10;;;;;;;22.46;58.32;99796.19;6276002;22;20019;-64
2021/08/31 02:23:56;;;;;;;0.10;0.10;;;;;;;22.47;58.37;99802.34;6303190;22;20370;-64
2021/08/31 02:26:22;;;;;;;0.10;0.10;;;;;;;22.48;58.33;99804.84;6303246;22;20045;-64
2021/08/31 02:28:48;;;;;;;0.10;0.10;;;;;;;22.47;58.36;99800.53;6302849;22;20015;-65
2021/08/31 02:31:14;;;;;;;0.15;0.15;;;;;;;22.45;58.48;99793.69;6303179;22;20345;-66
2021/08/31 02:33:40;;;;;;;0.20;0.20;;;;;;;22.45;58.47;99810.47;6302547;22;20332;-64
2021/08/31 02:36:06;;;;;;;0.15;0.15;;;;;;;22.45;58.46;99802.50;6303305;22;20022;-64
2021/08/31 02:38:32;;;;;;;0.25;0.25;;;;;;;22.42;58.54;99794.00;6302543;22;20025;-65
2021/08/31 02:41:04;;;;;;;0.10;0.10;;;;;;;22.43;58.66;99812.47;6303501;22;20019;-63
2021/08/31 02:43:30;;;;;;;0.10;0.10;;;;;;;22.42;58.43;99805.47;6300442;22;20029;-61
2021/08/31 02:46:00;;;;;;;0.10;0.10;;;;;;;22.43;58.39;99801.84;6304186;22;20015;-64
2021/08/31 02:48:40;;;;;;;0.10;0.10;;;;;;;22.42;58.27;99805.47;6252224;22;20026;-64
2021/08/31 02:51:07;;;;;;;0.22;0.22;;;;;;;22.41;58.42;99809.16;6227137;22;20062;-65
2021/08/31 02:53:36;;;;;;;0.10;0.10;;;;;;;22.35;58.45;99799.13;6276248;22;20019;-67
2021/08/31 02:56:27;;;;;;;0.10;0.10;;;;;;;22.42;58.46;99812.63;6304352;22;20362;-67
2021/08/31 02:59:07;;;;;;;0.10;0.10;;;;;;;22.42;58.42;99817.94;6226724;22;20019;-63
2021/08/31 03:01:38;;;;;;;0.13;0.13;;;;;;;22.40;58.36;99818.13;6303273;22;20026;-64
2021/08/31 03:04:06;;;;;;;0.10;0.10;;;;;;;22.37;58.41;99807.81;6276828;22;20015;-64
2021/08/31 03:06:32;;;;;;;0.10;0.10;;;;;;;22.38;58.59;99813.97;6275506;22;20019;-64
2021/08/31 03:08:58;;;;;;;0.17;0.17;;;;;;;22.39;58.42;99827.09;6302638;22;20026;-64
2021/08/31 03:11:24;;;;;;;0.10;0.10;;;;;;;22.40;58.27;99814.63;6303052;22;20072;-64
2021/08/31 03:13:50;;;;;;;0.20;0.20;;;;;;;22.35;58.21;99798.31;6275169;22;20019;-64
2021/08/31 03:16:16;;;;;;;0.20;0.20;;;;;;;22.40;58.47;99830.59;6302873;22;20027;-63
2021/08/31 03:18:43;;;;;;;0.30;0.30;;;;;;;22.39;58.39;99812.94;6302592;22;20465;-64
2021/08/31 03:21:08;;;;;;;2.17;1.45;;;;;;;22.42;58.12;99816.13;6303097;22;20034;-63
2021/08/31 03:23:34;;;;;;;0.10;0.10;;;;;;;22.42;58.02;99799.31;6302786;22;20055;-64
2021/08/31 03:26:00;;;;;;;0.10;0.10;;;;;;;22.44;57.95;99798.19;6302889;22;20095;-64
2021/08/31 03:28:27;;;;;;;0.13;0.13;;;;;;;22.52;57.68;99816.81;6302880;22;20023;-65
2021/08/31 03:30:53;;;;;;;0.10;0.10;;;;;;;22.50;57.86;99824.16;6302501;22;20072;-64
2021/08/31 03:33:19;;;;;;;0.10;0.10;;;;;;;22.53;57.73;99834.47;6302757;22;20019;-65
2021/08/31 03:35:45;;;;;;;0.22;0.22;;;;;;;22.56;57.62;99841.28;6302825;22;20473;-65
2021/08/31 03:38:12;;;;;;;0.10;0.10;;;;;;;22.53;57.79;99829.16;6302892;22;20098;-65
2021/08/31 03:40:38;;;;;;;0.25;0.25;;;;;;;22.52;57.64;99838.13;6275207;22;20022;-65
2021/08/31 03:43:04;;;;;;;0.10;0.10;;;;;;;22.54;57.70;99832.66;6304473;22;20462;-65
2021/08/31 03:45:31;;;;;;;0.10;0.10;;;;;;;22.48;57.82;99826.13;6277401;22;20041;-64
2021/08/31 03:47:57;;;;;;;0.30;0.30;;;;;;;22.52;57.72;99832.78;6304458;22;20024;-64
2021/08/31 03:50:23;;;;;;;0.13;0.13;;;;;;;22.51;57.74;99830.31;6304483;22;20011;-64
2021/08/31 03:52:50;;;;;;;0.10;0.10;;;;;;;22.52;57.45;99821.31;6304247;22;20438;-64
2021/08/31 03:55:16;;;;;;;0.10;0.10;;;;;;;22.52;57.39;99806.19;6304381;22;20101;-66
2021/08/31 03:57:41;;;;;;;0.30;0.30;;;;;;;22.56;57.45;99799.56;6276954;22;20561;-65
2021/08/31 04:00:08;;;;;;;0.20;0.20;;;;;;;22.58;57.44;99792.22;6304464;22;20019;-65
2021/08/31 04:02:36;;;;;;;0.30;0.30;;;;;;;22.58;57.31;99776.25;6277050;22;20015;-64
2021/08/31 04:05:03;;;;;;;0.20;0.20;;;;;;;22.68;57.10;99779.63;6304321;22;20030;-64
2021/08/31 04:07:28;;;;;;;0.20;0.20;;;;;;;22.76;56.84;99793.00;6304446;22;20019;-65
2021/08/31 04:09:55;;;;;;;0.10;0.10;;;;;;;22.81;56.58;99795.13;6303988;22;20026;-65
2021/08/31 04:12:21;;;;;;;0.10;0.10;;;;;;;22.80;56.68;99807.66;6304396;22;20034;-65
2021/08/31 04:14:47;;;;;;;0.25;0.25;;;;;;;22.76;56.62;99798.31;6303757;22;20470;-64
2021/08/31 04:17:14;;;;;;;0.45;0.45;;;;;;;22.78;56.68;99806.97;6276763;22;20094;-65
2021/08/31 04:19:41;;;;;;;0.63;0.63;;;;;;;22.78;56.59;99800.78;6303837;22;20019;-65
2021/08/31 04:22:07;;;;;;;0.17;0.17;;;;;;;22.82;56.45;99818.13;6304314;22;20026;-65
2021/08/31 04:24:33;;;;;;;0.20;0.20;;;;;;;22.81;56.34;99811.94;6304190;22;20015;-65
2021/08/31 04:26:59;;;;;;;0.10;0.10;;;;;;;22.81;56.59;99800.47;6304086;22;20061;-66
2021/08/31 04:29:25;;;;;;;0.10;0.10;;;;;;;22.79;56.34;99797.97;6303638;22;20088;-65
2021/08/31 04:31:51;;;;;;;0.10;0.10;;;;;;;22.89;56.40;99791.66;6303860;22;20057;-68
2021/08/31 04:34:17;;;;;;;0.40;0.40;;;;;;;22.91;56.30;99789.66;6303763;22;20023;-65
2021/08/31 04:36:44;;;;;;;0.38;0.38;;;;;;;22.89;55.92;99776.53;6276647;22;20026;-66
2021/08/31 04:39:09;;;;;;;0.30;0.30;;;;;;;23.01;55.81;99785.00;6304040;22;20102;-66
2021/08/31 04:41:35;;;;;;;0.10;0.10;;;;;;;23.05;55.64;99791.69;6276968;22;20019;-66
2021/08/31 04:44:02;;;;;;;0.20;0.20;;;;;;;23.03;55.88;99781.22;6303647;22;20089;-68
2021/08/31 04:46:28;;;;;;;0.10;0.10;;;;;;;23.01;55.91;99788.50;6304375;22;20019;-66
2021/08/31 04:48:54;;;;;;;0.10;0.10;;;;;;;22.93;55.81;99772.53;6276781;22;20015;-65
2021/08/31 04:51:20;;;;;;;0.10;0.10;;;;;;;23.04;55.87;99790.84;6304207;22;20019;-64
2021/08/31 04:53:50;;;;;;;0.10;0.10;;;;;;;23.04;55.75;99777.53;6303454;22;20019;-67
2021/08/31 04:56:15;;;;;;;0.10;0.10;;;;;;;23.12;55.70;99782.03;6278274;22;20015;-67
2021/08/31 04:58:42;;;;;;;0.10;0.10;;;;;;;23.19;55.38;99772.38;6303545;22;20068;-66
2021/08/31 05:01:08;;;;;;;0.10;0.10;;;;;;;;;;6303977;22;20019;-66
2021/08/31 05:03:38;;;;;;;0.10;0.10;;;;;;;23.40;54.51;99764.72;6304251;22;20015;-67
2021/08/31 05:06:07;;;;;;;;;;;;;;;23.47;54.52;99770.22;6277295;22;20030;-67
2021/08/31 05:08:33;;;;;;;0.45;0.45;;;;;;;23.43;54.30;99740.41;6276449;22;20006;-66
2021/08/31 05:10:59;;;;;;;0.50;0.50;;;;;;;23.52;54.25;99757.25;6303563;22;20015;-67
2021/08/31 05:13:25;;;;;;;0.20;0.20;;;;;;;23.53;53.98;99756.22;6303776;22;20153;-67
2021/08/31 05:15:51;;;;;;;0.43;0.40;;;;;;;23.60;53.78;99750.03;6303320;22;20019;-67
2021/08/31 05:18:17;;;;;;;0.30;0.30;;;;;;;23.57;53.83;99754.88;6250660;22;20383;-66
2021/08/31 05:20:43;;;;;;;0.20;0.20;;;;;;;23.55;53.83;99746.25;6303279;22;20141;-66
2021/08/31 05:23:09;;;;;;;0.10;0.10;;;;;;;23.60;53.96;99765.22;6276552;22;20459;-66
2021/08/31 05:25:35;;;;;;;0.30;0.30;;;;;;;23.62;53.74;99765.88;6303496;22;20022;-67
2021/08/31 05:28:00;;;;;;;0.38;0.38;;;;;;;23.58;53.95;99756.56;6276162;22;20015;-66
2021/08/31 05:30:26;;;;;;;0.10;0.10;;;;;;;23.57;53.96;99760.22;6303749;22;20015;-67
2021/08/31 05:32:53;;;;;;;0.15;0.15;;;;;;;23.59;53.88;99769.69;6250939;22;20146;-66
2021/08/31 05:35:19;;;;;;;0.35;0.35;;;;;;;23.57;53.92;99765.53;6303500;22;20023;-67
2021/08/31 05:37:45;;;;;;;0.20;0.20;;;;;;;23.55;53.90;99757.72;6303295;22;20140;-67
2021/08/31 05:40:12;;;;;;;0.20;0.20;;;;;;;23.57;53.97;99761.06;6303584;22;20094;-66
2021/08/31 05:42:37;;;;;;;0.10;0.10;;;;;;;23.55;53.93;99757.72;6303504;22;20019;-65
2021/08/31 05:45:05;;;;;;;0.10;0.10;;;;;;;23.58;53.86;99756.56;6303243;22;20144;-68
2021/08/31 05:47:31;;;;;;;0.20;0.20;;;;;;;23.61;53.66;99767.72;6303436;22;20023;-65
2021/08/31 05:49:57;;;;;;;0.40;0.40;;;;;;;23.64;53.64;99758.53;6303148;22;20023;-68
2021/08/31 05:52:23;;;;;;;0.10;0.10;;;;;;;23.64;53.53;99764.72;6276565;22;20372;-66
2021/08/31 05:54:49;;;;;;;0.10;0.10;;;;;;;23.72;53.43;99758.53;6277144;22;20060;-65
2021/08/31 05:57:22;;;;;;;0.22;0.22;;;;;;;23.76;53.34;99757.16;6304575;22;20053;-64
2021/08/31 05:59:51;;;;;;;0.20;0.20;;;;;;;23.79;53.02;99759.50;6253299;22;20019;-67
2021/08/31 06:02:23;;;;;;;0.30;0.30;;;;;;;23.74;53.08;99746.69;6254356;22;20069;-67
2021/08/31 06:04:50;;;;;;;0.25;0.25;;;;;;;23.76;53.13;99739.34;6276788;22;20507;-66
2021/08/31 06:07:15;;;;;;;0.73;0.73;;;;;;;23.89;52.79;99754.00;6277085;22;20019;-66
2021/08/31 06:09:42;;;;;;;0.10;0.10;;;;;;;23.90;52.65;99760.97;6304084;22;20022;-65
2021/08/31 06:12:10;;;;;;;0.20;0.20;;;;;;;23.94;52.53;99755.13;6304262;22;20102;-66
2021/08/31 06:14:56;;;;;;;0.20;0.20;;;;;;;23.99;52.41;99765.25;6304386;22;20086;-67
2021/08/31 06:17:27;;;;;;;0.15;0.15;;;;;;;24.03;52.16;99750.59;6304081;22;20421;-65
2021/08/31 06:19:56;;;;;;;0.50;0.50;;;;;;;24.03;52.21;99755.94;6251435;22;20366;-64
2021/08/31 06:22:22;;;;;;;0.30;0.30;;;;;;;24.09;51.92;99756.06;6304279;22;20019;-65
2021/08/31 06:24:48;;;;;;;0.10;0.10;;;;;;;24.17;51.76;99757.91;6302793;22;20015;-66
2021/08/31 06:27:14;;;;;;;0.10;0.10;;;;;;;24.25;51.43;99766.69;6303436;22;20391;-65
2021/08/31 06:29:40;;;;;;;0.25;0.25;;;;;;;24.30;51.08;99756.34;6302954;22;20064;-64
2021/08/31 06:32:06;;;;;;;0.20;0.20;;;;;;;24.34;51.03;99760.31;6302879;22;20019;-65
2021/08/31 06:34:33;;;;;;;0.45;0.45;;;;;;;24.33;50.93;99749.81;6302808;22;20455;-65
2021/08/31 06:36:58;;;;;;;0.20;0.20;;;;;;;24.51;50.56;99761.06;6275755;22;20022;-64
2021/08/31 06:39:25;;;;;;;0.28;0.28;;;;;;;24.65;50.45;99763.00;6303221;22;20446;-67
2021/08/31 06:41:51;;;;;;;0.20;0.20;;;;;;;24.71;50.15;99753.44;6276217;22;20026;-63
2021/08/31 06:44:17;;;;;;;0.50;0.50;;;;;;;24.79;49.70;99722.19;6303411;22;20023;-66
2021/08/31 06:46:43;;;;;;;0.20;0.20;;;;;;;24.86;49.66;99733.84;6303072;22;20053;-66
2021/08/31 06:49:09;;;;;;;0.45;0.45;;;;;;;24.84;49.59;99735.84;6303009;22;20015;-67
2021/08/31 06:51:35;;;;;;;0.22;0.22;;;;;;;24.79;49.48;99753.38;6275799;22;20054;-67
2021/08/31 06:54:01;;;;;;;0.10;0.10;;;;;;;24.78;49.61;99751.72;6225004;22;20126;-66
2021/08/31 06:56:27;;;;;;;0.30;0.30;;;;;;;24.69;49.66;99742.94;6275305;22;20451;-66
2021/08/31 06:58:53;;;;;;;0.20;0.20;;;;;;;24.78;49.47;99744.53;6302799;22;20111;-66
2021/08/31 07:01:19;;;;;;;0.10;0.10;;;;;;;24.76;49.62;99754.59;6302961;22;20050;-67
2021/08/31 07:04:28;;;;;;;0.10;0.10;;;;;;;24.80;49.57;99753.19;6303089;22;20019;-65
2021/08/31 07:06:54;;;;;;;0.10;0.10;;;;;;;24.81;49.52;99738.84;6260729;22;20026;-66
2021/08/31 07:09:23;;;;;;;0.47;0.47;;;;;;;24.94;49.09;99745.44;6276205;22;20513;-65
2021/08/31 07:11:57;;;;;;;0.10;0.10;;;;;;;25.29;48.51;99748.31;6276174;22;20011;-67
2021/08/31 07:14:26;;;;;;;0.10;0.10;;;;;;;25.60;47.59;99715.31;6276968;22;20019;-63
2021/08/31 07:16:52;;;;;;;0.20;0.20;;;;;;;25.72;47.38;99741.41;6251668;22;20038;-66
2021/08/31 07:19:21;;;;;;;0.20;0.20;;;;;;;25.92;46.57;99742.53;6202145;22;20543;-67
2021/08/31 07:21:50;;;;;;;0.10;0.10;;;;;;;25.90;46.54;99739.22;6275808;22;20351;-64
2021/08/31 07:24:17;;;;;;;0.10;0.10;;;;;;;26.00;46.50;99738.94;6305901;22;20023;-65
2021/08/31 07:26:51;;;;;;;0.20;0.20;;;;;;;26.14;45.92;99718.53;6278696;22;20460;-67
2021/08/31 07:29:17;;;;;;;0.10;0.10;;;;;;;26.38;45.78;99720.88;6280968;22;20044;-64
2021/08/31 07:31:43;;;;;;;0.10;0.10;;;;;;;26.60;44.83;99725.28;6306325;22;20011;-64
2021/08/31 07:34:10;;;;;;;0.30;0.30;;;;;;;26.78;44.47;99708.75;6305505;22;20458;-63
2021/08/31 07:36:36;;;;;;;0.25;0.25;;;;;;;27.16;43.86;99720.06;6278297;22;20015;-67
2021/08/31 07:39:03;;;;;;;0.10;0.10;;;;;;;27.31;43.23;99718.09;6253256;22;20462;-67
2021/08/31 07:41:30;;;;;;;0.20;0.20;;;;;;;27.49;42.95;99718.47;6278339;22;20019;-71
2021/08/31 07:43:57;;;;;;;0.20;0.20;;;;;;;27.64;42.93;99703.09;6305347;22;20150;-67
2021/08/31 07:46:22;;;;;;;0.20;0.20;;;;;;;27.69;42.51;99708.69;6305984;22;20026;-63
2021/08/31 07:48:51;;;;;;;0.40;0.40;;;;;;;27.68;42.78;99682.88;6278288;22;20069;-64
2021/08/31 07:51:40;;;;;;;;;;;;;;;;;;;;;
2021/08/31 07:54:09;;;;;;;0.10;0.10;;;;;;;27.55;42.72;99682.81;6229792;22;20109;-63
2021/08/31 07:56:35;;;;;;;0.22;0.22;;;;;;;27.51;42.80;99681.56;6304659;22;20085;-67
2021/08/31 07:59:04;;;;;;;0.47;0.47;;;;;;;27.50;43.15;99666.47;6305289;22;20019;-64
2021/08/31 08:01:32;;;;;;;0.20;0.20;;;;;;;27.46;43.21;99689.34;6253722;22;20047;-68
2021/08/31 08:04:12;;;;;;;0.20;0.20;;;;;;;27.41;43.21;99684.56;6303914;22;20024;-67
2021/08/31 08:06:42;;;;;;;0.52;0.52;;;;;;;27.32;43.30;99676.88;6276025;22;20022;-65
2021/08/31 08:09:09;;;;;;;0.10;0.10;;;;;;;27.12;43.55;99660.63;6277798;22;20372;-65
2021/08/31 08:11:50;;;;;;;0.20;0.20;;;;;;;27.07;43.45;99656.84;6278558;22;20025;-64
2021/08/31 08:14:16;;;;;;;0.52;0.52;;;;;;;27.03;43.66;99664.47;6305718;22;20018;-65
2021/08/31 08:16:42;;;;;;;0.20;0.20;;;;;;;26.95;43.74;99669.16;6304942;22;20042;-68
2021/08/31 08:19:08;;;;;;;0.75;0.75;;;;;;;26.95;43.87;99663.78;6305360;22;20019;-67
2021/08/31 08:21:37;;;;;;;0.43;0.43;;;;;;;26.90;43.98;99662.50;6252182;22;20019;-65
2021/08/31 08:24:09;;;;;;;0.20;0.20;;;;;;;26.92;43.95;99671.19;6277414;22;20019;-66
2021/08/31 08:26:38;;;;;;;0.20;0.20;;;;;;;26.86;44.14;99650.50;6279001;22;20015;-67
2021/08/31 08:29:09;;;;;;;0.20;0.20;;;;;;;26.79;44.04;99649.63;6278656;22;20016;-66
2021/08/31 08:31:35;;;;;;;0.10;0.10;;;;;;;26.72;43.90;99646.03;6304973;22;20110;-64
2021/08/31 08:34:01;;;;;;;0.40;0.40;;;;;;;26.60;44.48;99644.91;6304626;22;20023;-67
2021/08/31 08:36:33;;;;;;;0.10;0.10;;;;;;;26.56;44.73;99651.66;6251864;22;20049;-66
2021/08/31 08:39:03;;;;;;;0.22;0.22;;;;;;;26.57;44.45;99647.94;6248376;22;20031;-68
2021/08/31 08:41:36;;;;;;;0.10;0.10;;;;;;;26.49;45.16;99669.53;6278158;22;20019;-65
2021/08/31 08:44:30;;;;;;;0.20;0.20;;;;;;;26.42;45.11;99656.06;6209443;22;20023;-65
2021/08/31 08:47:00;;;;;;;1.00;1.00;;;;;;;26.42;45.04;99647.19;6280337;22;20414;-65
2021/08/31 08:49:25;;;;;;;0.10;0.10;;;;;;;26.35;45.34;99662.34;6252706;22;20053;-65
2021/08/31 08:51:58;;;;;;;0.15;0.15;;;;;;;26.31;45.52;99653.03;6305191;22;20253;-64
2021/08/31 08:54:25;;;;;;;0.25;0.25;;;;;;;26.23;45.46;99645.16;6304857;22;20023;-65
2021/08/31 08:56:57;;;;;;;0.10;0.10;;;;;;;26.26;45.46;99644.75;6277475;22;20045;-66
2021/08/31 08:59:41;;;;;;;0.80;0.80;;;;;;;26.20;45.70;99640.16;6256275;22;20015;-67
2021/08/31 09:02:30;;;;;;;0.28;0.28;;;;;;;26.13;45.97;99625.84;6277274;22;20097;-68
2021/08/31 09:05:06;;;;;;;0.10;0.10;;;;;;;26.05;46.24;99625.94;6257100;22;20022;-62
2021/08/31 09:07:43;;;;;;;0.15;0.15;;;;;;;26.10;46.43;99639.63;6279277;22;20019;-68
2021/08/31 09:10:45;;;;;;;0.47;0.47;;;;;;;26.10;46.19;99631.59;6304514;22;20114;-68
2021/08/31 09:13:23;;;;;;;0.30;0.30;;;;;;;26.08;46.25;99615.69;6304620;22;20450;-66
2021/08/31 09:15:49;;;;;;;0.20;0.20;;;;;;;26.08;46.45;99629.09;6303607;22;20108;-66
2021/08/31 09:18:17;;;;;;;0.10;0.10;;;;;;;26.06;46.11;99619.59;6303190;22;20466;-66
2021/08/31 09:20:57;;;;;;;1.45;1.08;;;;;;;26.02;46.38;99603.09;6276153;22;20352;-66
2021/08/31 09:23:24;;;;;;;0.10;0.10;;;;;;;26.03;46.21;99603.91;6303805;22;20019;-66
2021/08/31 09:25:56;;;;;;;0.20;0.20;;;;;;;25.99;46.51;99613.34;6304028;22;20019;-69
2021/08/31 09:28:48;;;;;;;0.28;0.28;;;;;;;26.01;46.18;99608.63;6278593;22;20041;-67
2021/08/31 09:31:20;;;;;;;0.10;0.10;;;;;;;25.99;46.25;99608.81;6304036;22;20075;-65
2021/08/31 09:33:56;;;;;;;0.10;0.10;;;;;;;25.99;46.49;99619.50;6304195;22;20019;-64
2021/08/31 09:36:24;;;;;;;0.20;0.20;;;;;;;25.99;46.72;99618.69;6253480;22;20022;-65
2021/08/31 09:38:54;;;;;;;0.10;0.10;;;;;;;25.92;46.87;99603.38;6303977;22;20090;-63
2021/08/31 09:41:36;;;;;;;0.10;0.10;;;;;;;25.97;46.72;99610.03;6276633;22;20019;-67
2021/08/31 09:44:23;;;;;;;0.57;0.57;;;;;;;25.91;46.82;99593.69;6303351;22;20474;-65
2021/08/31 09:46:56;;;;;;;0.50;0.50;;;;;;;25.93;47.05;99609.56;6303242;22;20018;-65
2021/08/31 09:49:26;;;;;;;0.45;0.45;;;;;;;25.88;47.13;99596.75;6276197;22;20023;-66
2021/08/31 09:52:03;;;;;;;0.10;0.10;;;;;;;25.95;47.36;99612.06;6303368;22;20285;-64
2021/08/31 09:54:30;;;;;;;0.10;0.10;;;;;;;25.95;46.75;99607.53;6303396;22;20019;-64
2021/08/31 09:56:56;;;;;;;0.40;0.40;;;;;;;25.97;47.28;99602.00;6303226;22;20094;-65
2021/08/31 09:59:23;;;;;;;0.20;0.20;;;;;;;25.98;47.13;99603.66;6276373;22;20447;-66
2021/08/31 10:01:52;;;;;;;0.10;0.10;;;;;;;25.99;46.99;99591.94;6303475;22;20054;-67
2021/08/31 10:05:03;;;;;;;0.25;0.25;;;;;;;25.93;46.94;99596.19;6304813;22;20015;-65
2021/08/31 10:07:36;;;;;;;0.20;0.20;;;;;;;25.90;46.71;99597.41;6257901;22;20049;-63
2021/08/31 10:10:02;;;;;;;0.10;0.10;;;;;;;25.90;46.73;99584.03;6251192;22;20035;-66
2021/08/31 10:12:30;;;;;;;0.10;0.10;;;;;;;25.97;46.73;99585.94;6303925;22;20063;-68
2021/08/31 10:14:58;;;;;;;0.10;0.10;;;;;;;25.94;46.63;99594.34;6250764;22;20027;-67
2021/08/31 10:17:28;;;;;;;0.10;0.10;;;;;;;25.98;46.54;99601.00;6277997;22;20092;-66
2021/08/31 10:19:58;;;;;;;0.20;0.20;;;;;;;25.96;46.49;99570.91;6303249;22;20026;-65
2021/08/31 10:22:24;;;;;;;1.55;0.30;;;;;;;26.01;46.45;99600.63;6276367;22;20053;-65
2021/08/31 10:24:56;;;;;;;0.40;0.40;;;;;;;26.00;46.44;99598.94;6277591;22;20463;-68
2021/08/31 10:27:35;;;;;;;0.25;0.25;;;;;;;25.99;46.62;99600.78;6277031;22;20075;-65
2021/08/31 10:30:19;;;;;;;0.22;0.22;;;;;;;26.03;46.44;99602.06;6303114;22;20043;-68
2021/08/31 10:32:49;;;;;;;0.35;0.35;;;;;;;26.04;46.74;99590.34;6303260;22;20021;-67
2021/08/31 10:35:31;;;;;;;0.20;0.20;;;;;;;26.03;46.51;99593.22;6250733;22;20106;-64
2021/08/31 10:38:04;;;;;;;0.10;0.10;;;;;;;26.04;46.44;99595.72;6303941;22;20024;-68
2021/08/31 10:40:36;;;;;;;0.20;0.20;;;;;;;26.06;46.72;99592.84;6303030;22;20025;-67
2021/08/31 10:43:03;;;;;;;0.10;0.10;;;;;;;26.06;46.64;99591.00;6302938;22;20616;-64
2021/08/31 10:45:56;;;;;;;0.40;0.40;;;;;;;26.09;46.76;99587.94;6275745;22;20354;-64
2021/08/31 10:48:22;;;;;;;0.40;0.40;;;;;;;26.14;46.63;99587.38;6302161;22;20065;-63
2021/08/31 10:50:52;;;;;;;0.20;0.20;;;;;;;26.16;46.72;99585.31;6303930;22;20100;-66
2021/08/31 10:53:41;;;;;;;0.10;0.10;;;;;;;26.19;46.16;99579.63;6277415;22;20019;-63
2021/08/31 10:56:23;;;;;;;0.30;0.30;;;;;;;26.23;46.17;99572.88;6279180;22;20113;-63
2021/08/31 10:59:03;;;;;;;0.10;0.10;;;;;;;26.24;45.97;99564.63;6252038;22;20023;-66
2021/08/31 11:01:37;;;;;;;0.10;0.10;;;;;;;26.26;46.21;99569.81;6305146;22;20026;-66
2021/08/31 11:04:03;;;;;;;0.10;0.10;;;;;;;26.22;45.98;99557.81;6278053;22;20019;-67
2021/08/31 11:06:31;;;;;;;0.80;0.80;;;;;;;26.23;46.11;99556.81;6226919;22;20043;-65
2021/08/31 11:09:08;;;;;;;0.10;0.10;;;;;;;26.33;45.94;99568.84;6304894;22;20027;-65
2021/08/31 11:11:34;;;;;;;0.30;0.30;;;;;;;26.37;45.99;99574.66;6277810;22;20019;-64
2021/08/31 11:14:00;;;;;;;0.10;0.10;;;;;;;26.37;45.81;99562.06;6304728;22;20519;-66
2021/08/31 11:16:30;;;;;;;0.52;0.52;;;;;;;26.36;45.69;99565.78;6304295;22;20019;-67
2021/08/31 11:18:56;;;;;;;;;;;;;;;26.37;45.63;99554.03;6279029;22;20019;-65
2021/08/31 11:21:22;;;;;;;0.20;0.20;;;;;;;26.40;45.88;99553.69;6304683;22;19915;-66
2021/08/31 11:23:48;;;;;;;0.20;0.20;;;;;;;26.41;45.54;99554.47;6305179;22;20023;-66
2021/08/31 11:26:22;;;;;;;0.10;0.10;;;;;;;26.40;45.59;99547.50;6304837;22;20537;-65
2021/08/31 11:28:48;;;;;;;0.30;0.13;;;;;;;26.39;45.38;99551.19;6277662;22;20054;-65
2021/08/31 11:31:28;;;;;;;0.10;0.10;;;;;;;26.40;45.41;99558.22;6304360;22;20026;-65
2021/08/31 11:33:55;;;;;;;0.20;0.20;;;;;;;26.42;45.70;99545.44;6304619;22;20019;-67
2021/08/31 11:36:22;;;;;;;0.10;0.10;;;;;;;26.43;45.78;99555.13;6277260;22;20038;-65
2021/08/31 11:38:55;;;;;;;0.10;0.10;;;;;;;26.47;45.42;99542.19;6277668;22;20090;-67
2021/08/31 11:41:28;;;;;;;0.13;0.13;;;;;;;26.45;45.62;99550.41;6304359;22;20026;-65
2021/08/31 11:43:58;;;;;;;0.28;0.28;;;;;;;26.44;45.29;99524.66;6304503;22;20041;-65
2021/08/31 11:46:37;;;;;;;0.20;0.20;;;;;;;26.43;45.16;99528.38;6304162;22;20370;-66